createdAt,value
2023-03-08T00:03:37.524Z,15.80
2023-03-08T00:07:39.566Z,7.88
2023-03-08T00:11:41.562Z,4.72
2023-03-08T00:15:44.378Z,4.78
2023-03-08T00:19:46.421Z,16.77
2023-03-08T00:23:51.374Z,4.65
2023-03-08T00:27:53.448Z,12.93
2023-03-08T00:31:56.716Z,16.50
2023-03-08T00:36:01.171Z,12.55
2023-03-08T00:40:05.805Z,6.85
2023-03-08T00:44:10.242Z,11.05
2023-03-08T00:48:12.599Z,9.38
2023-03-08T00:52:14.395Z,7.72
2023-03-08T00:56:16.468Z,6.82
2023-03-08T01:00:18.741Z,7.70
2023-03-08T01:04:20.782Z,9.70
2023-03-08T01:08:25.007Z,7.93
2023-03-08T01:12:27.290Z,7.53
2023-03-08T01:16:31.411Z,7.90
2023-03-08T01:20:34.145Z,8.48
2023-03-08T01:24:39.658Z,8.40
2023-03-08T01:28:42.478Z,5.90
2023-03-08T01:32:44.747Z,10.23
2023-03-08T01:36:46.996Z,10.55
2023-03-08T01:40:59.671Z,9.52
2023-03-08T01:45:05.796Z,12.18
2023-03-08T01:49:17.533Z,8.00
2023-03-08T01:53:19.870Z,9.25
2023-03-08T01:57:25.980Z,6.22
2023-03-08T02:01:28.350Z,6.68
2023-03-08T02:05:33.496Z,6.72
2023-03-08T02:09:44.141Z,8.85
2023-03-08T02:13:47.349Z,8.02
2023-03-08T02:17:49.771Z,7.32
2023-03-08T02:21:51.939Z,8.98
2023-03-08T02:25:57.520Z,5.10
2023-03-08T02:29:59.448Z,5.03
2023-03-08T02:34:01.628Z,4.68
2023-03-08T02:38:03.682Z,6.03
2023-03-08T02:42:07.190Z,4.93
2023-03-08T02:46:13.821Z,4.55
2023-03-08T02:50:16.198Z,4.78
2023-03-08T02:54:18.174Z,5.10
2023-03-08T02:58:20.311Z,4.30
2023-03-08T03:02:22.271Z,4.40
2023-03-08T03:06:24.146Z,3.55
2023-03-08T03:10:30.054Z,3.25
2023-03-08T03:14:32.593Z,4.13
2023-03-08T03:18:35.908Z,3.97
2023-03-08T03:22:38.144Z,3.53
2023-03-08T03:26:42.095Z,3.63
2023-03-08T03:30:44.696Z,4.25
2023-03-08T03:34:49.195Z,4.63
2023-03-08T03:38:55.078Z,3.78
2023-03-08T03:42:57.978Z,4.78
2023-03-08T03:47:00.125Z,7.22
2023-03-08T03:51:10.420Z,8.40
2023-03-08T03:55:13.715Z,8.32
2023-03-08T03:59:16.287Z,8.70
2023-03-08T04:03:18.944Z,7.88
2023-03-08T04:07:21.984Z,9.70
2023-03-08T04:11:36.886Z,9.73
2023-03-08T04:15:40.182Z,12.13
2023-03-08T04:19:49.192Z,12.50
2023-03-08T04:23:52.721Z,12.73
2023-03-08T04:27:55.430Z,13.35
2023-03-08T04:32:00.314Z,14.75
2023-03-08T04:36:10.008Z,15.40
2023-03-08T04:40:13.263Z,18.20
2023-03-08T04:44:26.118Z,18.15
2023-03-08T04:48:29.002Z,19.48
2023-03-08T04:52:31.277Z,21.38
2023-03-08T04:56:33.156Z,19.58
2023-03-08T05:00:35.855Z,20.13
2023-03-08T05:04:38.779Z,19.65
2023-03-08T05:08:41.955Z,21.52
2023-03-08T05:12:44.254Z,20.20
2023-03-08T05:16:46.395Z,18.65
2023-03-08T05:20:59.715Z,21.63
2023-03-08T05:25:02.497Z,23.23
2023-03-08T05:29:06.375Z,20.30
2023-03-08T05:33:09.117Z,19.10
2023-03-08T05:37:11.322Z,19.00
2023-03-08T05:41:16.808Z,18.05
2023-03-08T05:45:23.222Z,18.13
2023-03-08T05:49:25.538Z,16.95
2023-03-08T05:53:27.787Z,16.30
2023-03-08T05:57:30.063Z,80.82
2023-03-08T06:01:32.196Z,20.52
2023-03-08T06:05:46.813Z,20.13
2023-03-08T06:09:48.978Z,17.50
2023-03-08T06:13:53.404Z,17.70
2023-03-08T06:17:58.242Z,17.02
2023-03-08T06:22:01.760Z,29.08
2023-03-08T06:26:06.209Z,22.02
2023-03-08T06:30:11.025Z,17.08
2023-03-08T06:34:13.499Z,15.77
2023-03-08T06:38:16.830Z,14.35
2023-03-08T06:42:20.997Z,13.18
2023-03-08T06:46:28.121Z,13.43
2023-03-08T06:50:30.337Z,13.32
2023-03-08T06:54:33.714Z,12.40
2023-03-08T06:58:38.768Z,11.73
2023-03-08T07:02:41.134Z,11.10
2023-03-08T07:06:43.839Z,11.38
2023-03-08T07:10:45.752Z,10.35
2023-03-08T07:14:48.061Z,10.77
2023-03-08T07:18:50.257Z,9.88
2023-03-08T07:22:52.772Z,9.95
2023-03-08T07:26:54.845Z,10.43
2023-03-08T07:30:56.969Z,10.23
2023-03-08T07:34:59.022Z,10.20
2023-03-08T07:39:01.152Z,10.55
2023-03-08T07:43:03.753Z,10.55
2023-03-08T07:47:23.497Z,10.05
2023-03-08T07:51:25.712Z,9.30
2023-03-08T07:55:28.362Z,10.52
2023-03-08T07:59:30.620Z,12.35
2023-03-08T08:03:32.768Z,8.82
2023-03-08T08:07:34.998Z,8.75
2023-03-08T08:11:37.515Z,9.82
2023-03-08T08:15:39.549Z,8.15
2023-03-08T08:19:41.779Z,12.32
2023-03-08T08:23:44.071Z,8.82
2023-03-08T08:27:46.654Z,7.20
2023-03-08T08:31:48.855Z,8.50
2023-03-08T08:35:51.158Z,8.15
2023-03-08T08:39:53.226Z,7.18
2023-03-08T08:43:59.014Z,8.70
2023-03-08T08:48:01.162Z,6.88
2023-03-08T08:52:03.564Z,6.88
2023-03-08T08:56:26.567Z,6.35
2023-03-08T09:00:33.582Z,8.50
2023-03-08T09:04:35.689Z,7.10
2023-03-08T09:08:38.147Z,6.60
2023-03-08T09:12:41.239Z,8.32
2023-03-08T09:16:43.342Z,7.07
2023-03-08T09:20:45.511Z,8.27
2023-03-08T09:24:49.305Z,7.32
2023-03-08T09:28:51.301Z,6.28
2023-03-08T09:32:53.438Z,5.38
2023-03-08T09:36:55.541Z,5.60
2023-03-08T09:41:13.348Z,6.97
2023-03-08T09:45:23.522Z,7.73
2023-03-08T09:49:30.596Z,5.50
2023-03-08T09:53:39.540Z,5.50
2023-03-08T09:57:49.882Z,5.72
2023-03-08T10:02:35.133Z,6.75
2023-03-08T10:06:47.783Z,6.47
2023-03-08T10:11:05.186Z,5.50
2023-03-08T10:15:20.325Z,5.03
2023-03-08T10:19:33.046Z,4.50
2023-03-08T10:23:36.909Z,5.55
2023-03-08T10:27:39.188Z,6.07
2023-03-08T10:31:44.329Z,5.00
2023-03-08T10:36:12.638Z,5.32
2023-03-08T10:40:20.484Z,5.53
2023-03-08T10:44:40.721Z,5.70
2023-03-08T10:48:43.071Z,6.40
2023-03-08T10:52:47.116Z,5.88
2023-03-08T10:56:59.110Z,6.13
2023-03-08T11:01:05.213Z,5.05
2023-03-08T11:05:23.038Z,5.43
2023-03-08T11:09:27.882Z,4.15
2023-03-08T11:13:33.477Z,4.93
2023-03-08T11:17:39.441Z,5.18
2023-03-08T11:22:23.834Z,4.80
2023-03-08T11:26:58.687Z,4.45
2023-03-08T11:31:19.103Z,5.45
2023-03-08T11:36:00.118Z,4.35
2023-03-08T11:40:23.908Z,3.65
2023-03-08T11:44:41.810Z,5.97
2023-03-08T11:49:01.294Z,6.18
2023-03-08T11:53:22.791Z,7.13
2023-03-08T11:57:29.027Z,5.88
2023-03-08T12:01:51.363Z,4.97
2023-03-08T12:05:57.108Z,3.70
2023-03-08T12:10:25.308Z,4.53
2023-03-08T12:14:33.029Z,6.50
2023-03-08T12:18:46.684Z,5.95
2023-03-08T12:23:06.669Z,6.68
2023-03-08T12:27:20.684Z,5.43
2023-03-08T12:31:29.935Z,4.28
2023-03-08T12:35:37.887Z,5.18
2023-03-08T12:39:40.508Z,5.17
2023-03-08T12:43:43.241Z,8.55
2023-03-08T12:48:08.778Z,5.68
2023-03-08T12:52:20.275Z,3.85
2023-03-08T12:56:31.269Z,4.00
2023-03-08T13:00:36.604Z,3.85
2023-03-08T13:04:42.159Z,4.35
2023-03-08T13:08:53.882Z,4.05
2023-03-08T13:13:06.765Z,3.83
2023-03-08T13:17:30.338Z,3.88
2023-03-08T13:21:35.632Z,4.03
2023-03-08T13:25:56.105Z,3.17
2023-03-08T13:30:02.944Z,3.83
2023-03-08T13:34:27.947Z,4.20
2023-03-08T13:38:36.058Z,5.53
2023-03-08T13:42:52.290Z,5.78
2023-03-08T13:46:56.883Z,5.07
2023-03-08T13:50:59.661Z,4.72
2023-03-08T13:55:06.131Z,5.10
2023-03-08T13:59:18.757Z,6.50
2023-03-08T14:03:20.976Z,5.55
2023-03-08T14:07:26.140Z,6.25
2023-03-08T14:11:30.995Z,7.35
2023-03-08T14:15:37.779Z,6.30
2023-03-08T14:19:40.541Z,28.65
2023-03-08T14:23:47.937Z,6.35
2023-03-08T14:27:50.340Z,4.75
2023-03-08T14:31:54.197Z,5.25
2023-03-08T14:36:00.018Z,5.13
2023-03-08T14:40:19.354Z,4.25
2023-03-08T14:48:37.097Z,5.18
2023-03-08T14:52:46.645Z,9.00
2023-03-08T14:56:50.083Z,5.50
2023-03-08T15:00:57.186Z,6.55
2023-03-08T15:05:00.151Z,6.75
2023-03-08T15:09:03.962Z,6.32
2023-03-08T15:13:21.218Z,7.18
2023-03-08T15:17:24.103Z,6.32
2023-03-08T15:21:29.306Z,6.47
2023-03-08T15:25:35.220Z,5.63
2023-03-08T15:29:38.376Z,5.90
2023-03-08T15:33:40.419Z,6.38
2023-03-08T15:37:43.862Z,5.90
2023-03-08T15:41:47.231Z,7.03
2023-03-08T15:45:49.324Z,6.50
2023-03-08T15:49:51.543Z,7.22
2023-03-08T15:53:53.559Z,6.10
2023-03-08T15:57:56.106Z,6.43
2023-03-08T16:01:58.224Z,6.70
2023-03-08T16:06:01.333Z,6.65
2023-03-08T16:10:05.369Z,7.10
2023-03-08T16:14:07.688Z,6.80
2023-03-08T16:18:09.907Z,7.78
2023-03-08T16:22:12.079Z,7.75
2023-03-08T16:26:17.527Z,7.15
2023-03-08T16:30:20.089Z,8.48
2023-03-08T16:34:22.186Z,7.72
2023-03-08T16:38:24.477Z,7.78
2023-03-08T16:42:26.436Z,10.13
2023-03-08T16:46:29.207Z,9.18
2023-03-08T16:50:31.220Z,9.50
2023-03-08T16:54:33.482Z,9.18
2023-03-08T16:58:35.472Z,9.30
2023-03-08T17:02:37.681Z,16.25
2023-03-08T17:06:39.915Z,11.65
2023-03-08T17:10:44.132Z,8.20
2023-03-08T17:14:46.305Z,8.43
2023-03-08T17:18:49.426Z,8.75
2023-03-08T17:22:51.384Z,8.02
2023-03-08T17:26:53.727Z,11.73
2023-03-08T17:30:55.851Z,9.43
2023-03-08T17:34:58.245Z,10.30
2023-03-08T17:39:00.599Z,11.07
2023-03-08T17:43:02.929Z,10.18
2023-03-08T17:47:05.085Z,12.32
2023-03-08T17:51:09.946Z,12.00
2023-03-08T17:55:12.541Z,10.68
2023-03-08T17:59:16.724Z,10.07
2023-03-08T18:03:19.211Z,11.48
2023-03-08T18:07:21.611Z,17.15
2023-03-08T18:11:24.150Z,19.63
2023-03-08T18:15:26.708Z,19.55
2023-03-08T18:19:28.980Z,13.65
2023-03-08T18:23:31.800Z,14.52
2023-03-08T18:27:33.728Z,14.80
2023-03-08T18:31:37.305Z,13.50
2023-03-08T18:35:39.435Z,19.05
2023-03-08T18:39:41.773Z,19.45
2023-03-08T18:43:44.099Z,15.40
2023-03-08T18:47:50.079Z,16.05
2023-03-08T18:51:52.318Z,15.82
2023-03-08T18:55:56.801Z,18.15
2023-03-08T18:59:58.749Z,17.92
2023-03-08T19:04:07.004Z,19.10
2023-03-08T19:08:09.287Z,19.40
2023-03-08T19:12:12.609Z,23.90
2023-03-08T19:16:23.322Z,29.30
2023-03-08T19:20:26.574Z,55.35
2023-03-08T19:24:28.756Z,40.92
2023-03-08T19:28:30.765Z,32.75
2023-03-08T19:32:32.503Z,30.10
2023-03-08T19:36:37.831Z,28.50
2023-03-08T19:40:43.679Z,27.95
2023-03-08T19:44:50.490Z,30.55
2023-03-08T19:48:52.692Z,33.90
2023-03-08T19:52:54.636Z,37.55
2023-03-08T19:56:57.647Z,32.15
2023-03-08T20:01:08.570Z,30.30
2023-03-08T20:05:10.589Z,30.48
2023-03-08T20:09:14.794Z,29.33
2023-03-08T20:13:16.736Z,30.88
2023-03-08T20:17:18.766Z,31.67
2023-03-08T20:21:20.873Z,32.20
2023-03-08T20:25:23.130Z,35.60
2023-03-08T20:29:25.036Z,33.30
2023-03-08T20:33:27.058Z,36.90
2023-03-08T20:37:28.970Z,33.58
2023-03-08T20:41:31.110Z,33.55
2023-03-08T20:45:33.147Z,33.92
2023-03-08T20:49:35.178Z,37.30
2023-03-08T20:53:37.447Z,35.65
2023-03-08T20:57:39.501Z,34.20
2023-03-08T21:01:43.113Z,75.10
2023-03-08T21:05:45.257Z,47.35
2023-03-08T21:09:47.240Z,31.90
2023-03-08T21:13:50.659Z,30.52
2023-03-08T21:17:52.712Z,60.70
2023-03-08T21:21:54.805Z,38.28
2023-03-08T21:26:00.101Z,34.30
2023-03-08T21:30:03.200Z,52.28
2023-03-08T21:34:06.427Z,41.38
2023-03-08T21:38:09.155Z,29.52
2023-03-08T21:42:10.887Z,27.92
2023-03-08T21:46:13.070Z,26.85
2023-03-08T21:50:15.243Z,26.13
2023-03-08T21:54:17.589Z,30.02
2023-03-08T21:58:19.675Z,28.42
2023-03-08T22:02:21.812Z,29.67
2023-03-08T22:06:24.254Z,30.70
2023-03-08T22:10:26.280Z,29.38
2023-03-08T22:14:28.782Z,26.98
2023-03-08T22:18:32.285Z,28.55
2023-03-08T22:22:34.277Z,26.60
2023-03-08T22:26:36.505Z,24.63
2023-03-08T22:30:41.245Z,29.77
2023-03-08T22:34:43.233Z,29.40
2023-03-08T22:38:45.404Z,25.98
2023-03-08T22:42:47.526Z,32.28
2023-03-08T22:46:49.482Z,26.25
2023-03-08T22:51:04.738Z,27.08
2023-03-08T22:55:12.376Z,27.48
2023-03-08T22:59:15.112Z,26.67
2023-03-08T23:03:17.223Z,26.98
2023-03-08T23:07:19.242Z,25.33
2023-03-08T23:11:21.554Z,34.72
2023-03-08T23:15:23.823Z,31.83
2023-03-08T23:19:26.420Z,29.05
2023-03-08T23:23:28.567Z,30.45
2023-03-08T23:27:31.182Z,31.88
2023-03-08T23:31:35.594Z,28.95
2023-03-08T23:35:37.779Z,29.05
2023-03-08T23:39:40.100Z,29.02
2023-03-08T23:43:42.887Z,30.80
2023-03-08T23:47:44.955Z,27.88
2023-03-08T23:51:47.058Z,29.17
2023-03-08T23:55:49.076Z,27.27
2023-03-08T23:59:51.229Z,24.95
